Time;durP1;ratioP1;P1;durP2;ratioP2;P2;SDS_P1;SDS_P2;PMS_P1;PMS_P2;Temp;Humidity;BMP_temperature;BMP_pressure;BME280_temperature;BME280_humidity;BME280_pressure;Samples;Min_cycle;Max_cycle;Signal;HPM_P1;HPM_P2
2022/03/27 00:02:09;;;;;;;32.70;20.57;;;9.70;60.00;;;;;;5065222;28;20544;-69
2022/03/27 00:04:36;;;;;;;33.43;18.20;;;9.70;60.10;;;;;;5059412;28;20196;-69
2022/03/27 00:07:03;;;;;;;25.43;16.93;;;9.70;60.00;;;;;;5067837;28;20201;-69
2022/03/27 00:09:30;;;;;;;36.83;21.03;;;9.70;59.20;;;;;;5063962;28;20758;-69
2022/03/27 00:11:57;;;;;;;39.17;21.17;;;9.70;59.40;;;;;;5060707;28;20274;-69
2022/03/27 00:14:25;;;;;;;38.97;22.17;;;9.50;60.00;;;;;;5057702;28;20534;-69
2022/03/27 00:16:52;;;;;;;37.27;22.73;;;9.50;60.00;;;;;;5063321;28;20207;-70
2022/03/27 00:19:20;;;;;;;38.53;22.77;;;9.40;59.80;;;;;;5061741;28;20240;-70
2022/03/27 00:21:47;;;;;;;33.57;22.17;;;9.40;59.50;;;;;;5071983;28;20247;-70
2022/03/27 00:24:14;;;;;;;28.77;19.57;;;9.40;59.30;;;;;;5069063;28;20233;-70
2022/03/27 00:26:41;;;;;;;41.03;21.67;;;9.40;59.30;;;;;;5072319;28;20545;-70
2022/03/27 00:29:09;;;;;;;36.23;21.70;;;9.40;59.00;;;;;;5069462;28;20235;-70
2022/03/27 00:31:38;;;;;;;37.17;22.63;;;9.40;59.10;;;;;;5060028;28;20546;-70
2022/03/27 00:34:05;;;;;;;37.20;23.37;;;9.40;58.80;;;;;;5066683;28;20205;-70
2022/03/27 00:36:33;;;;;;;35.47;24.10;;;9.40;58.60;;;;;;5063427;28;20198;-70
2022/03/27 00:39:00;;;;;;;34.83;21.97;;;9.40;58.70;;;;;;5058975;28;20211;-70
2022/03/27 00:41:27;;;;;;;32.50;20.80;;;9.40;58.60;;;;;;5064859;28;20206;-70
2022/03/27 00:43:54;;;;;;;34.53;21.00;;;9.40;59.00;;;;;;5064762;28;20204;-70
2022/03/27 00:46:21;;;;;;;37.40;23.20;;;9.30;59.10;;;;;;5073946;28;20556;-70
2022/03/27 00:48:48;;;;;;;34.70;21.73;;;9.40;59.50;;;;;;5063594;28;20272;-70
2022/03/27 00:51:15;;;;;;;37.67;22.10;;;9.30;59.70;;;;;;5061700;28;20281;-70
2022/03/27 00:53:42;;;;;;;32.50;21.80;;;9.30;60.60;;;;;;5057897;28;20227;-70
2022/03/27 00:56:09;;;;;;;34.40;19.63;;;9.10;60.60;;;;;;5059546;28;20204;-70
2022/03/27 00:58:37;;;;;;;34.63;23.07;;;9.00;60.60;;;;;;5068107;28;20198;-70
2022/03/27 01:01:11;;;;;;;41.77;22.97;;;8.90;60.70;;;;;;5055246;28;20262;-70
2022/03/27 01:03:38;;;;;;;33.73;20.53;;;8.90;60.90;;;;;;5068996;28;20217;-70
2022/03/27 01:06:38;;;;;;;36.03;21.53;;;8.80;60.40;;;;;;5061230;28;20234;-70
2022/03/27 01:12:17;;;;;;;38.33;22.40;;;8.60;59.30;;;;;;5068647;28;20201;-70
2022/03/27 01:14:44;;;;;;;37.23;21.67;;;8.50;59.90;;;;;;5066683;28;20204;-70
2022/03/27 01:17:16;;;;;;;35.03;21.27;;;8.40;60.00;;;;;;5060828;28;20221;-70
2022/03/27 01:19:49;;;;;;;37.90;23.73;;;8.30;60.00;;;;;;5072293;28;20205;-70
2022/03/27 01:22:17;;;;;;;31.30;18.97;;;8.20;60.30;;;;;;5064938;28;20208;-70
2022/03/27 01:24:45;;;;;;;31.10;20.40;;;8.20;60.50;;;;;;5058869;28;20525;-70
2022/03/27 01:27:12;;;;;;;31.90;20.33;;;8.20;60.80;;;;;;5059742;28;20244;-70
2022/03/27 01:29:40;;;;;;;38.70;21.63;;;8.20;60.90;;;;;;5072928;28;20214;-70
2022/03/27 01:32:11;;;;;;;35.37;20.90;;;8.10;61.00;;;;;;5067291;28;20207;-70
2022/03/27 01:34:38;;;;;;;35.30;21.00;;;8.00;61.00;;;;;;5054568;28;20269;-70
2022/03/27 01:37:09;;;;;;;37.00;19.77;;;8.00;61.40;;;;;;5064427;28;20210;-70
2022/03/27 01:39:37;;;;;;;32.07;21.07;;;8.00;61.70;;;;;;5067863;28;20215;-70
2022/03/27 01:42:05;;;;;;;53.90;19.60;;;7.90;61.40;;;;;;5072569;28;20202;-70
2022/03/27 01:44:33;;;;;;;52.07;22.37;;;7.90;61.60;;;;;;5051262;28;20221;-70
2022/03/27 01:47:01;;;;;;;61.07;21.60;;;7.90;61.80;;;;;;5070083;28;20222;-70
2022/03/27 01:49:29;;;;;;;41.93;21.43;;;7.90;62.00;;;;;;5074309;28;20220;-70
2022/03/27 01:51:56;;;;;;;42.80;22.60;;;7.90;62.10;;;;;;5065974;28;20193;-70
2022/03/27 01:54:23;;;;;;;41.60;20.73;;;7.90;62.10;;;;;;5068564;28;20189;-70
2022/03/27 01:56:50;;;;;;;34.60;22.00;;;7.90;62.10;;;;;;5073739;28;20217;-70
2022/03/27 01:59:20;;;;;;;30.97;19.70;;;7.90;62.70;;;;;;5071707;28;20213;-70
2022/03/27 02:01:48;;;;;;;38.23;21.87;;;7.90;62.70;;;;;;5078324;28;20214;-70
2022/03/27 02:04:15;;;;;;;34.47;21.80;;;7.90;63.00;;;;;;5054454;28;20207;-70
2022/03/27 02:06:43;;;;;;;34.27;21.60;;;7.80;63.20;;;;;;5062171;28;20252;-70
2022/03/27 02:09:12;;;;;;;33.83;21.57;;;7.80;63.00;;;;;;5064766;28;20275;-70
2022/03/27 02:11:43;;;;;;;34.57;21.70;;;7.70;62.70;;;;;;5070147;28;20198;-71
2022/03/27 02:14:10;;;;;;;38.00;23.47;;;7.70;62.90;;;;;;5066556;28;20199;-71
2022/03/27 02:16:39;;;;;;;36.43;23.37;;;7.70;63.50;;;;;;5061956;28;20538;-71
2022/03/27 02:19:09;;;;;;;35.83;22.57;;;7.70;63.60;;;;;;5066908;28;20260;-71
2022/03/27 02:21:38;;;;;;;38.33;23.77;;;7.70;63.60;;;;;;5054392;28;20624;-71
2022/03/27 02:24:06;;;;;;;36.90;23.83;;;7.70;63.90;;;;;;5062049;28;20197;-71
2022/03/27 02:26:34;;;;;;;39.23;23.10;;;7.70;64.20;;;;;;5063120;28;20225;-71
2022/03/27 02:29:02;;;;;;;38.70;24.10;;;7.70;64.30;;;;;;5056159;28;20206;-71
2022/03/27 02:31:29;;;;;;;44.20;24.23;;;7.70;64.50;;;;;;5071648;28;20206;-71
2022/03/27 02:33:56;;;;;;;40.43;23.17;;;7.70;65.00;;;;;;5065056;28;20610;-71
2022/03/27 02:36:23;;;;;;;39.63;23.33;;;7.70;64.50;;;;;;5057735;28;20220;-71
2022/03/27 02:38:50;;;;;;;42.93;25.13;;;7.70;63.70;;;;;;5056030;28;20647;-71
2022/03/27 02:41:17;;;;;;;41.33;24.37;;;7.70;64.10;;;;;;5061896;28;20212;-71
2022/03/27 02:43:44;;;;;;;41.67;24.63;;;7.70;65.10;;;;;;5067293;28;20205;-71
2022/03/27 02:46:11;;;;;;;39.53;24.17;;;7.70;65.70;;;;;;5059462;28;20706;-71
2022/03/27 02:48:38;;;;;;;39.63;22.90;;;7.70;65.80;;;;;;5062854;28;20222;-71
2022/03/27 02:51:05;;;;;;;37.90;21.73;;;7.70;65.30;;;;;;5067108;28;20197;-71
2022/03/27 02:53:32;;;;;;;34.47;23.57;;;7.70;65.00;;;;;;5061606;28;20203;-71
2022/03/27 02:55:59;;;;;;;43.70;24.73;;;7.70;65.10;;;;;;5066699;28;20206;-71
2022/03/27 02:58:27;;;;;;;36.20;22.17;;;7.70;65.20;;;;;;5062201;28;20214;-71
2022/03/27 03:00:54;;;;;;;40.53;24.60;;;7.70;65.20;;;;;;5059528;28;20590;-71
2022/03/27 03:03:22;;;;;;;39.63;23.93;;;7.70;64.30;;;;;;5076167;28;20271;-71
2022/03/27 03:05:49;;;;;;;44.63;25.77;;;7.70;63.90;;;;;;5069798;28;20242;-71
2022/03/27 03:08:18;;;;;;;42.07;25.70;;;7.60;63.80;;;;;;5055899;28;20225;-71
2022/03/27 03:10:45;;;;;;;42.73;25.73;;;7.70;63.70;;;;;;5062501;28;20279;-71
2022/03/27 03:13:12;;;;;;;40.07;24.57;;;7.70;63.60;;;;;;5065167;28;20216;-71
2022/03/27 03:15:42;;;;;;;43.63;25.40;;;7.70;63.50;;;;;;5070730;28;20514;-71
2022/03/27 03:18:10;;;;;;;40.40;25.07;;;7.70;63.70;;;;;;5061153;28;20199;-71
2022/03/27 03:20:39;;;;;;;44.50;25.20;;;7.70;63.90;;;;;;5068095;28;20656;-71
2022/03/27 03:23:08;;;;;;;45.13;25.70;;;7.70;64.00;;;;;;5073781;28;20216;-71
2022/03/27 03:25:35;;;;;;;36.17;23.23;;;7.70;63.90;;;;;;5075940;28;20201;-71
2022/03/27 03:28:22;;;;;;;35.93;22.30;;;7.70;64.00;;;;;;5067456;28;20649;-71
2022/03/27 03:30:49;;;;;;;38.63;23.47;;;7.80;64.20;;;;;;5062415;28;20293;-71
2022/03/27 03:33:16;;;;;;;41.47;23.83;;;7.70;64.20;;;;;;5067632;28;20653;-71
2022/03/27 03:35:43;;;;;;;42.73;25.87;;;7.70;65.10;;;;;;5065703;28;20209;-71
2022/03/27 03:38:10;;;;;;;48.57;25.33;;;7.70;65.90;;;;;;5070969;28;20225;-71
2022/03/27 03:40:37;;;;;;;36.90;23.40;;;7.60;66.20;;;;;;5068096;28;20216;-71
2022/03/27 03:43:05;;;;;;;43.03;25.03;;;7.60;66.60;;;;;;5073170;28;20282;-71
2022/03/27 03:45:32;;;;;;;40.63;25.63;;;7.60;66.30;;;;;;5075959;28;20645;-71
2022/03/27 03:47:59;;;;;;;40.23;24.93;;;7.50;65.70;;;;;;5076164;28;20625;-71
2022/03/27 03:50:27;;;;;;;41.17;23.90;;;7.50;65.70;;;;;;5071751;28;20662;-71
2022/03/27 03:52:55;;;;;;;40.37;24.50;;;7.50;65.70;;;;;;5064016;28;20272;-71
2022/03/27 03:55:22;;;;;;;40.47;22.77;;;7.50;65.90;;;;;;5059152;28;20210;-71
2022/03/27 03:57:49;;;;;;;35.17;22.83;;;7.50;66.10;;;;;;5063250;28;20213;-71
2022/03/27 04:00:16;;;;;;;41.43;23.60;;;7.50;66.00;;;;;;5067630;28;20210;-71
2022/03/27 04:02:43;;;;;;;36.23;23.17;;;7.50;66.20;;;;;;5061032;28;20206;-71
2022/03/27 04:05:10;;;;;;;43.03;25.43;;;7.50;66.10;;;;;;5064326;28;20234;-71
2022/03/27 04:07:37;;;;;;;43.67;25.27;;;7.50;65.80;;;;;;5076866;28;20251;-71
2022/03/27 04:10:05;;;;;;;45.17;25.50;;;7.50;65.80;;;;;;5069611;28;20232;-71
2022/03/27 04:12:32;;;;;;;38.80;24.17;;;7.40;66.10;;;;;;5056221;28;20247;-71
2022/03/27 04:14:59;;;;;;;38.13;23.50;;;7.40;66.00;;;;;;5070035;28;20193;-71
2022/03/27 04:17:27;;;;;;;37.37;24.40;;;7.40;66.10;;;;;;5065149;28;20200;-71
2022/03/27 04:19:54;;;;;;;47.30;22.90;;;7.50;66.30;;;;;;5058817;28;20220;-71
2022/03/27 04:22:21;;;;;;;40.10;23.67;;;7.50;66.30;;;;;;5063746;28;20514;-71
2022/03/27 04:24:48;;;;;;;39.80;25.03;;;7.50;66.00;;;;;;5075015;28;20648;-71
2022/03/27 04:27:16;;;;;;;42.57;23.53;;;7.60;65.70;;;;;;5061492;28;20235;-71
2022/03/27 04:29:43;;;;;;;44.20;24.93;;;7.70;65.30;;;;;;5069596;28;20206;-71
2022/03/27 04:32:10;;;;;;;40.90;24.33;;;7.70;65.60;;;;;;5072483;28;20204;-71
2022/03/27 04:34:37;;;;;;;43.07;24.47;;;7.70;64.60;;;;;;5061676;28;20219;-71
2022/03/27 04:37:05;;;;;;;44.10;23.63;;;7.70;64.40;;;;;;5065632;28;20210;-71
2022/03/27 04:39:32;;;;;;;37.63;23.53;;;7.70;64.20;;;;;;5060420;28;20267;-71
2022/03/27 04:41:59;;;;;;;39.03;21.53;;;7.80;63.80;;;;;;5070980;28;20702;-71
2022/03/27 04:44:26;;;;;;;39.17;22.83;;;7.80;63.60;;;;;;5060342;28;20223;-71
2022/03/27 04:46:54;;;;;;;33.73;20.87;;;7.80;63.50;;;;;;5068641;28;20223;-71
2022/03/27 04:49:21;;;;;;;34.93;21.40;;;7.80;63.10;;;;;;5068603;28;20568;-71
2022/03/27 04:51:49;;;;;;;35.80;21.50;;;7.80;62.80;;;;;;5073292;28;20194;-71
2022/03/27 04:54:16;;;;;;;35.10;21.43;;;7.80;62.40;;;;;;5068041;28;20301;-71
2022/03/27 04:56:46;;;;;;;39.43;20.93;;;7.80;62.10;;;;;;5062656;28;20216;-70
2022/03/27 04:59:13;;;;;;;37.63;21.03;;;7.80;62.10;;;;;;5059130;28;20268;-70
2022/03/27 05:01:41;;;;;;;41.13;21.67;;;7.80;61.90;;;;;;5059245;28;20225;-70
2022/03/27 05:04:09;;;;;;;33.70;21.23;;;7.80;61.90;;;;;;5066385;28;20211;-70
2022/03/27 05:06:36;;;;;;;35.00;21.03;;;7.80;61.90;;;;;;5071495;28;20221;-70
2022/03/27 05:09:03;;;;;;;34.13;21.60;;;7.80;62.00;;;;;;5057300;28;20243;-70
2022/03/27 05:11:30;;;;;;;33.83;20.70;;;7.80;62.10;;;;;;5063622;28;20206;-70
2022/03/27 05:13:57;;;;;;;33.60;22.17;;;7.80;62.10;;;;;;5064895;28;20199;-70
2022/03/27 05:16:25;;;;;;;35.47;21.67;;;7.80;61.80;;;;;;5073212;28;20218;-70
2022/03/27 05:18:52;;;;;;;33.30;20.20;;;7.80;62.10;;;;;;5069421;28;20213;-70
2022/03/27 05:21:20;;;;;;;34.23;20.83;;;7.70;62.10;;;;;;5064246;28;20210;-70
2022/03/27 05:23:47;;;;;;;33.93;20.30;;;7.80;62.50;;;;;;5071514;28;20206;-70
2022/03/27 05:26:15;;;;;;;30.83;20.23;;;7.80;63.10;;;;;;5062856;28;20508;-71
2022/03/27 05:28:42;;;;;;;31.13;18.83;;;7.90;63.50;;;;;;5062866;28;20202;-71
2022/03/27 05:31:09;;;;;;;34.63;20.53;;;8.00;63.80;;;;;;5060793;28;20520;-71
2022/03/27 05:33:37;;;;;;;29.20;19.70;;;8.00;64.50;;;;;;5055952;28;20609;-71
2022/03/27 05:36:08;;;;;;;33.07;20.37;;;8.10;65.00;;;;;;5065644;28;20203;-71
2022/03/27 05:38:40;;;;;;;31.17;20.50;;;8.10;64.90;;;;;;5056659;28;20196;-71
2022/03/27 05:41:09;;;;;;;34.50;20.63;;;8.10;63.90;;;;;;5068214;28;20759;-71
2022/03/27 05:43:36;;;;;;;26.47;18.40;;;8.20;62.80;;;;;;5065263;28;20225;-71
2022/03/27 05:46:04;;;;;;;27.00;19.63;;;8.20;63.40;;;;;;5072550;28;20212;-71
2022/03/27 05:48:35;;;;;;;29.07;20.03;;;8.20;64.90;;;;;;5073235;28;20209;-71
2022/03/27 05:51:02;;;;;;;31.77;22.43;;;8.30;64.70;;;;;;5066821;28;20271;-71
2022/03/27 05:53:30;;;;;;;31.50;20.70;;;8.40;64.60;;;;;;5066353;28;20217;-71
2022/03/27 05:55:59;;;;;;;35.07;20.70;;;8.50;64.50;;;;;;5056361;28;20213;-71
2022/03/27 05:58:26;;;;;;;35.17;20.70;;;8.60;64.30;;;;;;5071747;28;20602;-71
2022/03/27 06:00:53;;;;;;;34.73;20.93;;;8.70;64.00;;;;;;5061664;28;20206;-71
2022/03/27 06:03:20;;;;;;;34.03;21.13;;;8.80;63.80;;;;;;5066598;28;20211;-71
2022/03/27 06:05:47;;;;;;;37.17;21.03;;;8.90;64.10;;;;;;5059296;28;20210;-71
2022/03/27 06:08:15;;;;;;;37.97;22.70;;;9.00;64.10;;;;;;5065131;28;20218;-71
2022/03/27 06:10:42;;;;;;;31.00;20.03;;;9.10;63.90;;;;;;5054994;28;20211;-71
2022/03/27 06:13:11;;;;;;;34.20;22.57;;;9.20;63.60;;;;;;5054697;28;20206;-71
2022/03/27 06:15:38;;;;;;;32.03;22.03;;;9.30;63.80;;;;;;5062061;28;20229;-71
2022/03/27 06:18:10;;;;;;;36.40;22.53;;;9.30;63.80;;;;;;5059983;28;20636;-71
2022/03/27 06:20:38;;;;;;;37.23;23.10;;;9.40;64.00;;;;;;5073082;28;20210;-71
2022/03/27 06:23:06;;;;;;;34.07;22.00;;;9.50;64.20;;;;;;5064384;28;20216;-71
2022/03/27 06:25:34;;;;;;;38.93;23.47;;;9.60;63.80;;;;;;5068014;28;20198;-71
2022/03/27 06:28:01;;;;;;;35.17;23.20;;;9.70;63.50;;;;;;5061624;28;20231;-71
2022/03/27 06:30:30;;;;;;;35.67;23.20;;;9.70;63.30;;;;;;5060637;28;20198;-71
2022/03/27 06:32:59;;;;;;;41.03;24.27;;;9.80;63.40;;;;;;5054151;28;20210;-71
2022/03/27 06:35:27;;;;;;;36.27;24.47;;;9.90;63.20;;;;;;5048241;28;20201;-71
2022/03/27 06:37:56;;;;;;;37.50;23.53;;;10.00;62.80;;;;;;5060496;28;20207;-71
2022/03/27 06:40:23;;;;;;;41.37;24.73;;;10.10;62.50;;;;;;5062154;28;20207;-71
2022/03/27 06:42:51;;;;;;;40.40;25.37;;;10.10;61.30;;;;;;5065874;28;20206;-71
2022/03/27 06:45:24;;;;;;;38.20;25.27;;;10.30;60.90;;;;;;5070837;28;20590;-71
2022/03/27 06:47:51;;;;;;;37.73;24.53;;;10.30;60.60;;;;;;5071041;28;20235;-71
2022/03/27 06:50:22;;;;;;;40.27;26.00;;;10.40;61.10;;;;;;5065918;28;20202;-71
2022/03/27 06:52:50;;;;;;;44.20;25.33;;;10.50;59.80;;;;;;5062582;28;20203;-71
2022/03/27 06:55:17;;;;;;;39.27;24.73;;;10.60;59.70;;;;;;5066036;28;20202;-71
2022/03/27 06:57:45;;;;;;;41.20;24.50;;;10.70;58.90;;;;;;5056814;28;20211;-71
2022/03/27 07:03:04;;;;;;;36.00;24.47;;;10.80;58.20;;;;;;5060719;28;20208;-71
2022/03/27 07:05:37;;;;;;;38.47;25.40;;;11.00;57.90;;;;;;5067491;28;20200;-71
2022/03/27 07:08:06;;;;;;;39.27;26.13;;;11.10;57.10;;;;;;5072660;28;20268;-71
2022/03/27 07:10:33;;;;;;;41.67;25.73;;;11.20;56.20;;;;;;5059824;28;20212;-71
2022/03/27 07:13:00;;;;;;;39.27;25.53;;;11.40;55.70;;;;;;5061416;28;20200;-71
2022/03/27 07:15:28;;;;;;;48.03;27.97;;;11.50;55.40;;;;;;5053530;28;20220;-71
2022/03/27 07:17:56;;;;;;;46.57;27.60;;;11.70;55.30;;;;;;5067029;28;20212;-71
2022/03/27 07:20:28;;;;;;;49.83;27.90;;;11.80;55.00;;;;;;5066163;28;20204;-71
2022/03/27 07:23:03;;;;;;;44.37;27.73;;;12.00;55.40;;;;;;5068246;28;20660;-71
2022/03/27 07:25:34;;;;;;;41.30;26.13;;;12.10;55.60;;;;;;5057257;28;20197;-71
2022/03/27 07:28:05;;;;;;;40.17;26.90;;;12.20;55.70;;;;;;5062936;28;20320;-71
2022/03/27 07:30:33;;;;;;;45.87;27.53;;;12.30;55.90;;;;;;5062471;28;20637;-71
2022/03/27 07:33:01;;;;;;;42.97;27.90;;;12.40;56.10;;;;;;5070812;28;20281;-71
2022/03/27 07:35:30;;;;;;;38.37;26.90;;;12.50;56.30;;;;;;5069522;28;20323;-71
2022/03/27 07:37:58;;;;;;;42.27;27.80;;;12.60;56.00;;;;;;5064085;28;20207;-71
2022/03/27 07:40:25;;;;;;;41.27;28.00;;;12.70;54.80;;;;;;5067278;28;20202;-71
2022/03/27 07:42:54;;;;;;;44.67;28.13;;;12.80;54.70;;;;;;5063243;28;20207;-71
2022/03/27 07:45:27;;;;;;;41.87;28.77;;;12.90;55.10;;;;;;5063464;28;20211;-71
2022/03/27 07:47:55;;;;;;;43.60;28.77;;;13.00;54.30;;;;;;5058898;28;20215;-71
2022/03/27 07:50:25;;;;;;;42.23;27.57;;;13.00;53.60;;;;;;5064297;28;20208;-71
2022/03/27 07:52:52;;;;;;;45.80;29.70;;;13.00;53.80;;;;;;5068073;28;20218;-71
2022/03/27 07:55:22;;;;;;;45.77;28.83;;;13.10;53.90;;;;;;5059359;28;20198;-71
2022/03/27 07:57:53;;;;;;;48.70;32.63;;;13.10;53.80;;;;;;5059393;28;20219;-71
2022/03/27 08:00:20;;;;;;;45.83;30.97;;;13.30;54.50;;;;;;5068183;28;20204;-71
2022/03/27 08:02:47;;;;;;;54.07;36.63;;;13.30;53.80;;;;;;5069804;28;20541;-71
2022/03/27 08:05:15;;;;;;;57.87;37.77;;;13.40;53.80;;;;;;5060523;28;20216;-71
2022/03/27 08:07:42;;;;;;;54.37;36.70;;;13.50;52.10;;;;;;5074554;28;20213;-71
2022/03/27 08:10:10;;;;;;;57.27;34.37;;;13.60;53.20;;;;;;5073514;28;20247;-71
2022/03/27 08:12:37;;;;;;;50.47;33.60;;;13.60;54.90;;;;;;5067340;28;20584;-71
2022/03/27 08:15:05;;;;;;;45.83;32.27;;;13.70;55.70;;;;;;5066299;28;20253;-71
2022/03/27 08:17:33;;;;;;;48.20;33.57;;;13.80;55.70;;;;;;5061457;28;20235;-71
2022/03/27 08:20:00;;;;;;;52.33;33.33;;;14.00;56.20;;;;;;5058970;28;20657;-71
2022/03/27 08:22:28;;;;;;;56.20;35.47;;;14.10;55.40;;;;;;5063485;28;20288;-71
2022/03/27 08:24:55;;;;;;;51.03;34.40;;;14.20;55.40;;;;;;5069997;28;20213;-71
2022/03/27 08:27:22;;;;;;;52.57;34.97;;;14.20;55.10;;;;;;5063506;28;20217;-71
2022/03/27 08:29:49;;;;;;;56.70;36.77;;;14.30;54.30;;;;;;5064441;28;20194;-71
2022/03/27 08:32:17;;;;;;;54.50;36.13;;;14.40;53.90;;;;;;5074413;28;20212;-71
2022/03/27 08:34:47;;;;;;;57.20;35.73;;;14.40;53.70;;;;;;5068937;28;20200;-71
2022/03/27 08:37:15;;;;;;;57.83;37.60;;;14.40;52.20;;;;;;5062507;28;20216;-71
2022/03/27 08:39:46;;;;;;;58.33;36.13;;;14.40;52.40;;;;;;5066525;28;20645;-71
2022/03/27 08:42:16;;;;;;;56.47;37.27;;;14.40;52.70;;;;;;5052248;28;20658;-71
2022/03/27 08:44:44;;;;;;;57.97;37.17;;;14.40;52.90;;;;;;5060122;28;20283;-71
2022/03/27 08:47:24;;;;;;;55.67;35.67;;;14.50;53.00;;;;;;5065553;28;20256;-71
2022/03/27 08:50:34;;;;;;;53.27;34.67;;;14.60;53.70;;;;;;5074414;28;20263;-71
2022/03/27 08:53:07;;;;;;;52.77;34.50;;;14.80;53.70;;;;;;5057039;28;20225;-71
2022/03/27 08:55:54;;;;;;;50.07;32.70;;;15.00;53.10;;;;;;5063083;28;20208;-71
2022/03/27 08:58:27;;;;;;;54.50;33.87;;;15.20;52.70;;;;;;5057011;28;20661;-71
2022/03/27 09:00:54;;;;;;;49.17;33.23;;;15.40;52.30;;;;;;5073858;28;20637;-71
2022/03/27 09:03:22;;;;;;;47.53;28.67;;;15.60;52.20;;;;;;5068404;28;20202;-71
2022/03/27 09:05:49;;;;;;;51.07;31.77;;;15.70;50.90;;;;;;5072065;28;20318;-71
2022/03/27 09:08:17;;;;;;;48.60;29.13;;;15.90;50.20;;;;;;5071339;28;20217;-71
2022/03/27 09:10:45;;;;;;;48.03;30.17;;;16.10;50.10;;;;;;5064717;28;20205;-71
2022/03/27 09:13:15;;;;;;;49.60;32.03;;;16.20;48.60;;;;;;5059604;28;20230;-71
2022/03/27 09:15:43;;;;;;;46.67;29.10;;;16.50;48.00;;;;;;5071909;28;20242;-71
2022/03/27 09:18:13;;;;;;;41.10;27.73;;;16.70;47.40;;;;;;5073262;28;20212;-71
2022/03/27 09:20:46;;;;;;;42.83;27.47;;;16.90;45.50;;;;;;5067987;28;20293;-71
2022/03/27 09:23:22;;;;;;;46.30;28.93;;;17.20;44.40;;;;;;5070781;28;20219;-71
2022/03/27 09:25:51;;;;;;;41.53;28.50;;;17.40;43.90;;;;;;5060450;28;20233;-71
2022/03/27 09:28:25;;;;;;;44.37;28.20;;;17.60;43.70;;;;;;5061405;28;20303;-71
2022/03/27 09:30:53;;;;;;;43.87;29.43;;;17.90;43.30;;;;;;5070960;28;20241;-71
2022/03/27 09:33:46;;;;;;;49.37;30.47;;;18.10;42.60;;;;;;5063070;28;20227;-71
2022/03/27 09:36:16;;;;;;;44.90;29.00;;;18.30;42.80;;;;;;5067992;28;20256;-71
2022/03/27 09:39:13;;;;;;;40.10;26.93;;;18.60;43.00;;;;;;5062753;28;20202;-71
2022/03/27 09:41:54;;;;;;;43.07;26.00;;;18.80;42.80;;;;;;5059661;28;20208;-71
2022/03/27 09:44:29;;;;;;;35.97;22.40;;;19.20;42.70;;;;;;5061083;28;20260;-71
2022/03/27 09:47:00;;;;;;;34.20;22.13;;;19.40;38.90;;;;;;5073668;28;20257;-71
2022/03/27 09:49:30;;;;;;;39.33;25.23;;;19.40;38.10;;;;;;5068920;28;20225;-71
2022/03/27 09:52:19;;;;;;;35.00;22.43;;;19.40;36.00;;;;;;5060258;28;20208;-71
2022/03/27 09:54:55;;;;;;;38.17;22.07;;;19.30;37.90;;;;;;5053404;28;20327;-72
2022/03/27 09:57:23;;;;;;;35.20;23.50;;;19.40;36.50;;;;;;5065270;28;20292;-71
2022/03/27 09:59:51;;;;;;;38.00;24.00;;;19.40;38.00;;;;;;5060775;28;20560;-71
2022/03/27 10:02:22;;;;;;;33.77;23.50;;;19.40;37.60;;;;;;5071653;28;20195;-71
2022/03/27 10:04:57;;;;;;;34.93;22.33;;;19.50;37.70;;;;;;5069836;28;20201;-71
2022/03/27 10:07:25;;;;;;;37.57;22.60;;;19.50;38.90;;;;;;5061074;28;20629;-71
2022/03/27 10:09:54;;;;;;;38.47;21.67;;;19.70;38.00;;;;;;5063077;28;20259;-71
2022/03/27 10:12:27;;;;;;;35.83;22.07;;;19.70;37.30;;;;;;5070739;28;20265;-71
2022/03/27 10:14:59;;;;;;;34.53;22.47;;;19.80;38.20;;;;;;5062935;28;20215;-71
2022/03/27 10:17:28;;;;;;;35.53;22.43;;;20.00;37.30;;;;;;5060168;28;20204;-71
2022/03/27 10:20:02;;;;;;;33.63;21.10;;;20.10;37.20;;;;;;5071199;28;20205;-71
2022/03/27 10:22:30;;;;;;;32.77;21.33;;;20.30;36.10;;;;;;5058923;28;20727;-71
2022/03/27 10:25:02;;;;;;;29.87;20.33;;;20.30;35.60;;;;;;5059788;28;20197;-71
2022/03/27 10:27:30;;;;;;;31.03;20.53;;;20.30;34.10;;;;;;5071426;28;20620;-71
2022/03/27 10:29:59;;;;;;;31.50;20.50;;;20.30;35.30;;;;;;5066666;28;20204;-71
2022/03/27 10:32:27;;;;;;;27.53;20.40;;;20.40;35.70;;;;;;5057346;28;20219;-71
2022/03/27 10:35:13;;;;;;;29.10;20.57;;;20.60;36.90;;;;;;5055688;28;20211;-71
2022/03/27 10:37:53;;;;;;;26.30;18.63;;;20.80;35.40;;;;;;5075533;28;20637;-71
2022/03/27 10:40:36;;;;;;;33.77;20.40;;;20.90;35.20;;;;;;5062475;28;20205;-71
2022/03/27 10:43:11;;;;;;;37.87;21.97;;;21.10;36.20;;;;;;5055892;28;20205;-71
2022/03/27 10:45:38;;;;;;;32.27;21.87;;;21.20;34.50;;;;;;5065897;28;20709;-71
2022/03/27 10:48:18;;;;;;;37.07;22.27;;;21.30;33.70;;;;;;5060870;28;20236;-71
2022/03/27 10:50:48;;;;;;;30.37;19.17;;;21.20;33.70;;;;;;5072910;28;20212;-71
2022/03/27 10:53:17;;;;;;;27.77;19.13;;;21.20;34.90;;;;;;5063816;28;20201;-71
2022/03/27 10:55:47;;;;;;;30.80;19.53;;;21.20;34.70;;;;;;5063423;28;20220;-71
2022/03/27 10:58:39;;;;;;;28.87;20.37;;;21.20;33.60;;;;;;5056052;28;20653;-71
2022/03/27 11:01:21;;;;;;;28.90;19.57;;;21.20;35.00;;;;;;5067095;28;20540;-71
2022/03/27 11:03:52;;;;;;;27.23;18.10;;;21.30;34.60;;;;;;5077191;28;20584;-71
2022/03/27 11:06:27;;;;;;;30.83;19.10;;;21.50;34.00;;;;;;5055464;28;20212;-71
2022/03/27 11:08:59;;;;;;;29.27;18.87;;;21.60;34.30;;;;;;5059473;28;20245;-71
2022/03/27 11:11:38;;;;;;;26.03;18.30;;;21.70;34.00;;;;;;5060715;28;20217;-71
2022/03/27 11:14:08;;;;;;;25.33;17.67;;;21.80;33.20;;;;;;5059125;28;20198;-71
2022/03/27 11:17:04;;;;;;;24.57;17.90;;;21.80;31.70;;;;;;5071283;28;20225;-71
2022/03/27 11:19:45;;;;;;;27.07;19.00;;;21.70;33.80;;;;;;5067369;28;20630;-71
2022/03/27 11:22:54;;;;;;;26.57;18.10;;;21.60;32.80;;;;;;5064648;28;20225;-71
2022/03/27 11:25:39;;;;;;;28.73;18.40;;;21.40;32.80;;;;;;5064642;28;20611;-71
2022/03/27 11:28:16;;;;;;;30.83;19.33;;;21.30;34.10;;;;;;5078130;28;20315;-71
2022/03/27 11:30:55;;;;;;;24.70;18.73;;;21.20;34.10;;;;;;5059262;28;20213;-71
2022/03/27 11:33:23;;;;;;;23.50;18.77;;;21.20;34.00;;;;;;5065308;28;20230;-71
2022/03/27 11:36:05;;;;;;;25.90;19.13;;;21.20;34.90;;;;;;5069191;28;20200;-71
2022/03/27 11:38:52;;;;;;;28.40;19.43;;;21.20;34.60;;;;;;5059212;28;20209;-71
2022/03/27 11:41:24;;;;;;;31.30;19.03;;;21.20;34.80;;;;;;5064663;28;20212;-71
2022/03/27 11:43:56;;;;;;;24.70;18.40;;;21.10;33.30;;;;;;5061099;28;20214;-71
2022/03/27 11:46:27;;;;;;;25.53;18.70;;;21.00;34.20;;;;;;5074771;28;20212;-71
2022/03/27 11:49:00;;;;;;;27.20;19.87;;;20.90;35.70;;;;;;5053038;28;20320;-71
2022/03/27 11:51:28;;;;;;;27.60;18.83;;;20.90;35.70;;;;;;5066625;28;20676;-71
2022/03/27 11:53:57;;;;;;;31.00;19.40;;;20.90;36.40;;;;;;5072240;28;20202;-71
2022/03/27 11:56:25;;;;;;;26.27;18.67;;;20.90;35.90;;;;;;5074150;28;20206;-71
2022/03/27 11:59:06;;;;;;;28.80;20.13;;;20.90;35.70;;;;;;5063556;28;20637;-71
2022/03/27 12:01:33;;;;;;;31.40;21.33;;;21.00;36.30;;;;;;5074444;28;20206;-71
2022/03/27 12:04:00;;;;;;;28.53;20.70;;;21.10;35.50;;;;;;5071632;28;20220;-71
2022/03/27 12:06:28;;;;;;;27.90;20.00;;;21.20;35.90;;;;;;5063658;28;20298;-71
2022/03/27 12:08:58;;;;;;;30.57;19.73;;;21.30;36.10;;;;;;5071063;28;20372;-71
2022/03/27 12:11:26;;;;;;;27.67;18.10;;;21.30;36.50;;;;;;5068228;28;20284;-71
2022/03/27 12:13:53;;;;;;;23.33;19.00;;;21.30;37.00;;;;;;5066197;28;20201;-71
2022/03/27 12:16:25;;;;;;;31.03;19.13;;;21.30;36.30;;;;;;5061612;28;20206;-71
2022/03/27 12:18:53;;;;;;;24.93;17.70;;;21.30;34.80;;;;;;5074618;28;20297;-71
2022/03/27 12:21:22;;;;;;;25.13;17.97;;;21.30;36.90;;;;;;5066735;28;20203;-70
2022/03/27 12:23:52;;;;;;;24.60;17.93;;;21.30;36.30;;;;;;5062806;28;20207;-70
2022/03/27 12:32:21;;;;;;;27.87;18.33;;;21.20;37.30;;;;;;5059989;28;20278;-70
2022/03/27 12:34:50;;;;;;;27.20;18.77;;;21.10;37.50;;;;;;5055030;28;20559;-70
2022/03/27 12:37:21;;;;;;;25.37;18.50;;;21.00;38.30;;;;;;5068791;28;20208;-70
2022/03/27 12:39:48;;;;;;;23.57;17.33;;;21.00;38.50;;;;;;5061090;28;20207;-70
2022/03/27 12:42:36;;;;;;;30.80;19.93;;;21.00;37.40;;;;;;5065084;28;20296;-71
2022/03/27 12:45:22;;;;;;;28.00;18.13;;;21.00;36.60;;;;;;5068026;28;20221;-71
2022/03/27 12:47:58;;;;;;;26.70;19.37;;;20.90;37.60;;;;;;5068788;28;20214;-71
2022/03/27 12:50:25;;;;;;;26.77;18.63;;;20.80;37.40;;;;;;5066072;28;20197;-71
2022/03/27 12:52:55;;;;;;;26.73;19.43;;;20.80;37.30;;;;;;5063259;28;20213;-71
2022/03/27 12:55:26;;;;;;;25.37;18.17;;;20.70;37.60;;;;;;5068576;28;20205;-71
2022/03/27 12:57:58;;;;;;;23.83;18.20;;;20.80;39.10;;;;;;5073973;28;20258;-72
2022/03/27 13:00:28;;;;;;;26.10;18.60;;;20.70;39.60;;;;;;5059395;28;20214;-71